createdAt,value
2018-10-21T00:03:38.039Z,87.8
2018-10-21T00:08:38.053Z,87.6
2018-10-21T00:13:38.248Z,87.6
2018-10-21T00:18:39.362Z,85.3
2018-10-21T00:23:39.080Z,82.6
2018-10-21T00:28:51.709Z,80
2018-10-21T00:33:51.571Z,79.9
2018-10-21T00:38:51.478Z,79.7
2018-10-21T00:43:51.462Z,80.1
2018-10-21T00:48:51.693Z,79
2018-10-21T00:53:51.649Z,76.8
2018-10-21T00:58:51.656Z,76.9
2018-10-21T01:03:51.835Z,76.7
2018-10-21T01:08:51.744Z,76.5
2018-10-21T01:14:03.847Z,77.5
2018-10-21T01:19:03.794Z,77.2
2018-10-21T01:24:03.701Z,77.5
2018-10-21T01:29:03.749Z,76.6
2018-10-21T01:34:03.545Z,77.5
2018-10-21T01:39:03.708Z,76.1
2018-10-21T01:44:03.577Z,76
2018-10-21T01:49:03.672Z,75.8
2018-10-21T01:54:03.670Z,75.9
2018-10-21T01:59:16.154Z,77.2
2018-10-21T02:04:15.706Z,74.6
2018-10-21T02:09:16.149Z,74.8
2018-10-21T02:14:16.141Z,74.8
2018-10-21T02:19:15.736Z,74.8
2018-10-21T02:24:15.892Z,75.5
2018-10-21T02:29:15.767Z,75.9
2018-10-21T02:34:17.206Z,76.8
2018-10-21T02:39:17.129Z,76.8
2018-10-21T02:44:29.525Z,78.4
2018-10-21T02:49:29.411Z,78.9
2018-10-21T02:54:29.450Z,78
2018-10-21T02:59:29.255Z,79.7
2018-10-21T03:04:29.520Z,82.9
2018-10-21T03:09:29.607Z,82.9
2018-10-21T03:14:29.457Z,82.9
2018-10-21T03:19:31.112Z,82.3
2018-10-21T03:24:31.044Z,83.5
2018-10-21T03:29:44.001Z,83.4
2018-10-21T03:34:43.914Z,83.8
2018-10-21T03:39:43.837Z,84.4
2018-10-21T03:44:43.707Z,83.9
2018-10-21T03:49:43.909Z,84
2018-10-21T03:54:43.947Z,84.6
2018-10-21T03:59:43.869Z,84.6
2018-10-21T04:04:44.636Z,84.5
2018-10-21T04:09:44.529Z,83.8
2018-10-21T04:14:56.740Z,83.2
2018-10-21T04:19:56.598Z,83.2
2018-10-21T04:24:56.632Z,83.9
2018-10-21T04:29:56.509Z,85.2
2018-10-21T04:34:56.557Z,85.3
2018-10-21T04:39:56.670Z,85.2
2018-10-21T04:44:56.581Z,86.2
2018-10-21T04:49:59.290Z,86.4
2018-10-21T04:54:59.022Z,85.9
2018-10-21T05:00:10.704Z,86.7
2018-10-21T05:05:10.679Z,88
2018-10-21T05:10:10.896Z,86.7
2018-10-21T05:15:10.825Z,86.9
2018-10-21T05:20:10.595Z,88.3
2018-10-21T05:25:10.674Z,89.2
2018-10-21T05:30:10.550Z,88.7
2018-10-21T05:35:10.837Z,87.7
2018-10-21T05:40:11.152Z,87.2
2018-10-21T05:45:22.949Z,87.3
2018-10-21T05:50:22.809Z,86.7
2018-10-21T05:55:22.847Z,86.6
2018-10-21T06:00:22.649Z,85.9
2018-10-21T06:05:22.813Z,86
2018-10-21T06:10:22.833Z,85.5
2018-10-21T06:15:22.909Z,86.7
2018-10-21T06:20:23.175Z,87.1
2018-10-21T06:25:22.911Z,88.8
2018-10-21T06:30:36.099Z,89.6
2018-10-21T06:35:35.946Z,89.3
2018-10-21T06:40:35.954Z,88.5
2018-10-21T06:45:36.374Z,88.1
2018-10-21T06:50:36.050Z,87.7
2018-10-21T06:55:35.833Z,87.9
2018-10-21T07:00:35.977Z,87.7
2018-10-21T07:05:36.574Z,86.5
2018-10-21T07:10:36.477Z,84.9
2018-10-21T07:15:49.510Z,81.2
2018-10-21T07:20:49.033Z,82
2018-10-21T07:25:49.195Z,80.4
2018-10-21T07:30:48.905Z,79.7
2018-10-21T07:35:48.933Z,79.7
2018-10-21T07:40:48.914Z,80.7
2018-10-21T07:45:48.913Z,79.4
2018-10-21T07:50:49.810Z,79.8
2018-10-21T07:55:49.649Z,80.1
2018-10-21T08:01:02.146Z,78.7
2018-10-21T08:06:01.543Z,79
2018-10-21T08:11:01.514Z,78
2018-10-21T08:16:01.676Z,76.2
2018-10-21T08:21:01.710Z,75.8
2018-10-21T08:26:01.538Z,76.4
2018-10-21T08:31:01.550Z,76.1
2018-10-21T08:36:03.146Z,75.9
2018-10-21T08:41:01.531Z,75.6
2018-10-21T08:46:14.596Z,75.6
2018-10-21T08:51:14.103Z,76.2
2018-10-21T08:56:14.131Z,74.5
2018-10-21T09:01:14.365Z,74
2018-10-21T09:06:14.083Z,73
2018-10-21T09:11:14.101Z,73.8
2018-10-21T09:16:14.405Z,73.3
2018-10-21T09:21:15.200Z,70.1
2018-10-21T09:26:14.966Z,71.6
2018-10-21T09:31:27.413Z,70.6
2018-10-21T09:36:27.135Z,70.5
2018-10-21T09:41:27.179Z,69.2
2018-10-21T09:46:27.118Z,69.2
2018-10-21T09:51:27.153Z,68
2018-10-21T09:56:27.173Z,67.8
2018-10-21T10:01:27.335Z,69.2
2018-10-21T10:06:27.359Z,68.3
2018-10-21T10:11:27.423Z,67
2018-10-21T10:16:39.190Z,66.3
2018-10-21T10:21:38.884Z,66.5
2018-10-21T10:26:38.946Z,66.4
2018-10-21T10:31:38.901Z,65.7
2018-10-21T10:36:40.104Z,64.9
2018-10-21T10:41:39.044Z,64.6
2018-10-21T10:46:38.896Z,63.7
2018-10-21T10:51:42.168Z,62.5
2018-10-21T10:56:39.064Z,62.8
2018-10-21T11:01:51.145Z,60.5
2018-10-21T11:06:51.003Z,60.9
2018-10-21T11:11:50.876Z,61.8
2018-10-21T11:16:50.910Z,62
2018-10-21T11:21:51.259Z,62.2
2018-10-21T11:26:50.850Z,62.9
2018-10-21T11:31:50.858Z,62.4
2018-10-21T11:36:53.380Z,61.3
2018-10-21T11:41:53.089Z,63.7
2018-10-21T11:47:03.589Z,63.8
2018-10-21T11:52:03.391Z,64.1
2018-10-21T11:57:03.303Z,64.7
2018-10-21T12:02:03.317Z,65.4
2018-10-21T12:07:03.501Z,63.4
2018-10-21T12:12:03.338Z,62.9
2018-10-21T12:17:03.341Z,63.1
2018-10-21T12:22:05.923Z,62.2
2018-10-21T12:27:05.490Z,62.7
2018-10-21T12:32:16.419Z,63.2
2018-10-21T12:37:16.371Z,64
2018-10-21T12:42:16.180Z,62.4
2018-10-21T12:47:16.381Z,65.1
2018-10-21T12:52:16.408Z,64.7
2018-10-21T12:57:16.235Z,64.5
2018-10-21T13:02:16.417Z,63.8
2018-10-21T13:07:17.501Z,59.4
2018-10-21T13:12:17.066Z,59.6
2018-10-21T13:17:29.558Z,59.6
2018-10-21T13:22:29.529Z,59
2018-10-21T13:27:29.328Z,59.5
2018-10-21T13:32:29.546Z,59.1
2018-10-21T13:37:29.363Z,59
2018-10-21T13:42:29.463Z,59.7
2018-10-21T13:47:29.557Z,60.1
2018-10-21T13:52:29.745Z,56.8
2018-10-21T13:57:29.315Z,60.7
2018-10-21T14:02:42.042Z,61.7
2018-10-21T14:07:41.709Z,61.9
2018-10-21T14:12:41.714Z,60.5
2018-10-21T14:17:41.699Z,57.9
2018-10-21T14:22:41.869Z,58.5
2018-10-21T14:27:41.984Z,57.9
2018-10-21T14:32:41.744Z,59.7
2018-10-21T14:37:41.985Z,58.5
2018-10-21T14:42:41.832Z,58.6
2018-10-21T14:47:53.795Z,60
2018-10-21T14:52:53.907Z,57
2018-10-21T14:57:53.405Z,57.1
2018-10-21T15:02:53.716Z,57.9
2018-10-21T15:07:53.751Z,57.3
2018-10-21T15:12:53.424Z,57.1
2018-10-21T15:17:53.795Z,56.4
2018-10-21T15:22:54.075Z,56.8
2018-10-21T15:27:53.802Z,57.3
2018-10-21T15:33:06.636Z,58
2018-10-21T15:38:06.773Z,58.7
2018-10-21T15:43:06.366Z,59.3
2018-10-21T15:48:06.406Z,59.7
2018-10-21T15:53:06.540Z,60.2
2018-10-21T15:58:06.713Z,61.6
2018-10-21T16:03:06.381Z,62.5
2018-10-21T16:08:07.951Z,64.5
2018-10-21T16:13:07.433Z,63.2
2018-10-21T16:18:19.675Z,63.1
2018-10-21T16:23:19.388Z,62.6
2018-10-21T16:28:20.001Z,63.8
2018-10-21T16:33:21.578Z,64
2018-10-21T16:38:20.588Z,65
2018-10-21T16:43:19.378Z,63.8
2018-10-21T16:48:19.368Z,65.8
2018-10-21T16:53:23.284Z,66.8
2018-10-21T16:58:22.818Z,67.6
2018-10-21T17:03:35.705Z,68.3
2018-10-21T17:08:35.292Z,68.6
2018-10-21T17:13:35.257Z,70.7
2018-10-21T17:18:35.245Z,70.1
2018-10-21T17:23:35.407Z,71.2
2018-10-21T17:28:35.468Z,70.6
2018-10-21T17:33:35.436Z,71.4
2018-10-21T17:38:35.432Z,72
2018-10-21T17:43:35.447Z,72.7
2018-10-21T17:48:48.003Z,73.6
2018-10-21T17:53:48.109Z,74.3
2018-10-21T17:58:48.239Z,74.5
2018-10-21T18:03:47.769Z,74.3
2018-10-21T18:08:48.290Z,74.8
2018-10-21T18:13:47.706Z,75.2
2018-10-21T18:18:47.918Z,75.2
2018-10-21T18:23:53.053Z,76.4
2018-10-21T18:28:52.792Z,78.7
2018-10-21T18:34:05.624Z,78.8
2018-10-21T18:39:05.028Z,78.4
2018-10-21T18:44:04.944Z,79.5
2018-10-21T18:49:05.640Z,79.4
2018-10-21T18:54:05.091Z,79.2
2018-10-21T18:59:04.938Z,79.5
2018-10-21T19:04:06.199Z,79.1
2018-10-21T19:09:06.502Z,79.4
2018-10-21T19:14:06.095Z,80.1
2018-10-21T19:19:20.018Z,79.6
2018-10-21T19:24:19.919Z,80.3
2018-10-21T19:29:20.089Z,80.6
2018-10-21T19:34:20.128Z,81.4
2018-10-21T19:39:19.899Z,80.8
2018-10-21T19:44:20.205Z,81.2
2018-10-21T19:49:20.084Z,81.3
2018-10-21T19:54:23.161Z,81.4
2018-10-21T19:59:21.880Z,81
2018-10-21T20:04:37.962Z,81.3
2018-10-21T20:09:37.170Z,81.7
2018-10-21T20:14:37.928Z,81.9
2018-10-21T20:19:37.139Z,81.7
2018-10-21T20:24:37.438Z,82.2
2018-10-21T20:29:39.263Z,81.2
2018-10-21T20:34:39.432Z,82
2018-10-21T20:39:39.367Z,81.4
2018-10-21T20:44:39.581Z,81.6
2018-10-21T20:49:54.643Z,81.5
2018-10-21T20:54:54.397Z,81.8
2018-10-21T20:59:54.678Z,82.1
2018-10-21T21:04:54.591Z,81.3
2018-10-21T21:09:54.748Z,81.6
2018-10-21T21:14:55.558Z,81.7
2018-10-21T21:19:54.405Z,81.8
2018-10-21T21:24:55.841Z,82.7
2018-10-21T21:29:55.736Z,81.7
2018-10-21T21:35:07.913Z,82
2018-10-21T21:40:08.013Z,82.2
2018-10-21T21:45:07.721Z,82.9
2018-10-21T21:50:07.750Z,83.6
2018-10-21T21:55:07.583Z,84.2
2018-10-21T22:00:07.786Z,84.6
2018-10-21T22:05:07.696Z,84.9
2018-10-21T22:10:07.908Z,84.9
2018-10-21T22:15:07.609Z,85
2018-10-21T22:20:20.072Z,85.3
2018-10-21T22:25:19.883Z,85.3
2018-10-21T22:30:19.911Z,85.7
2018-10-21T22:35:19.859Z,86.7
2018-10-21T22:40:20.161Z,86.2
2018-10-21T22:45:19.786Z,86.5
2018-10-21T22:50:19.882Z,86
2018-10-21T22:55:22.156Z,86
2018-10-21T23:00:22.083Z,86.3
2018-10-21T23:05:34.281Z,86.7
2018-10-21T23:10:34.222Z,86.8
2018-10-21T23:15:34.165Z,86.9
2018-10-21T23:20:34.190Z,86.9
2018-10-21T23:25:34.228Z,87.1
2018-10-21T23:30:34.149Z,87.7
2018-10-21T23:35:34.194Z,87.6
2018-10-21T23:40:34.770Z,87.8
2018-10-21T23:45:34.499Z,89.1
2018-10-21T23:50:47.058Z,88.4
2018-10-21T23:55:46.865Z,88.3
